sensor_id;sensor_type;location;lat;lon;timestamp;temperature;humidity
1055;DHT22;516;51.482;7.120;2022-09-13T00:01:37;18.50;89.20
1055;DHT22;516;51.482;7.120;2022-09-13T00:07:25;18.50;89.60
1055;DHT22;516;51.482;7.120;2022-09-13T00:13:13;18.40;91.00
1055;DHT22;516;51.482;7.120;2022-09-13T00:19:01;18.70;86.00
1055;DHT22;516;51.482;7.120;2022-09-13T00:24:49;18.60;87.60
1055;DHT22;516;51.482;7.120;2022-09-13T00:30:36;18.70;85.00
1055;DHT22;516;51.482;7.120;2022-09-13T00:36:25;18.60;87.20
1055;DHT22;516;51.482;7.120;2022-09-13T00:42:13;18.70;86.70
1055;DHT22;516;51.482;7.120;2022-09-13T00:48:04;18.70;85.10
1055;DHT22;516;51.482;7.120;2022-09-13T00:53:55;18.60;86.90
1055;DHT22;516;51.482;7.120;2022-09-13T00:59:53;18.70;87.40
1055;DHT22;516;51.482;7.120;2022-09-13T01:06:09;18.80;86.30
1055;DHT22;516;51.482;7.120;2022-09-13T01:12:10;18.80;85.10
1055;DHT22;516;51.482;7.120;2022-09-13T01:18:20;18.70;88.70
1055;DHT22;516;51.482;7.120;2022-09-13T01:46:47;18.40;90.50
1055;DHT22;516;51.482;7.120;2022-09-13T01:52:58;18.30;90.50
1055;DHT22;516;51.482;7.120;2022-09-13T02:11:26;18.40;89.00
1055;DHT22;516;51.482;7.120;2022-09-13T02:17:21;18.50;88.60
1055;DHT22;516;51.482;7.120;2022-09-13T02:23:16;18.60;87.60
1055;DHT22;516;51.482;7.120;2022-09-13T02:39:30;18.40;90.70
1055;DHT22;516;51.482;7.120;2022-09-13T02:45:20;18.30;91.40
1055;DHT22;516;51.482;7.120;2022-09-13T03:04:53;18.40;92.70
1055;DHT22;516;51.482;7.120;2022-09-13T03:33:57;18.70;89.70
1055;DHT22;516;51.482;7.120;2022-09-13T03:46:20;18.80;90.60
1055;DHT22;516;51.482;7.120;2022-09-13T03:52:08;18.60;92.90
1055;DHT22;516;51.482;7.120;2022-09-13T03:57:56;18.50;95.60
1055;DHT22;516;51.482;7.120;2022-09-13T04:03:44;18.40;99.40
1055;DHT22;516;51.482;7.120;2022-09-13T04:09:32;18.40;99.90
1055;DHT22;516;51.482;7.120;2022-09-13T04:15:19;18.40;99.90
1055;DHT22;516;51.482;7.120;2022-09-13T04:21:08;18.10;99.90
1055;DHT22;516;51.482;7.120;2022-09-13T04:26:56;18.10;99.90
1055;DHT22;516;51.482;7.120;2022-09-13T04:33:10;18.00;99.90
1055;DHT22;516;51.482;7.120;2022-09-13T04:36:10;18.00;99.90
1055;DHT22;516;51.482;7.120;2022-09-13T04:41:57;18.20;99.90
1055;DHT22;516;51.482;7.120;2022-09-13T04:47:50;18.10;99.90
1055;DHT22;516;51.482;7.120;2022-09-13T04:53:38;18.30;99.90
1055;DHT22;516;51.482;7.120;2022-09-13T04:59:26;18.20;99.90
1055;DHT22;516;51.482;7.120;2022-09-13T05:05:14;18.00;99.90
1055;DHT22;516;51.482;7.120;2022-09-13T05:11:02;18.00;99.90
1055;DHT22;516;51.482;7.120;2022-09-13T05:16:50;18.00;99.90
1055;DHT22;516;51.482;7.120;2022-09-13T05:22:38;18.10;99.90
1055;DHT22;516;51.482;7.120;2022-09-13T05:28:27;18.20;99.90
1055;DHT22;516;51.482;7.120;2022-09-13T05:37:37;18.20;99.90
1055;DHT22;516;51.482;7.120;2022-09-13T05:43:27;18.40;99.90
1055;DHT22;516;51.482;7.120;2022-09-13T05:48:59;18.50;99.90
1055;DHT22;516;51.482;7.120;2022-09-13T05:54:47;18.60;99.90
1055;DHT22;516;51.482;7.120;2022-09-13T06:00:35;18.60;99.90
1055;DHT22;516;51.482;7.120;2022-09-13T06:06:23;18.80;99.90
1055;DHT22;516;51.482;7.120;2022-09-13T06:12:11;18.70;99.90
1055;DHT22;516;51.482;7.120;2022-09-13T06:17:59;18.70;99.90
1055;DHT22;516;51.482;7.120;2022-09-13T06:23:51;18.80;99.90
1055;DHT22;516;51.482;7.120;2022-09-13T06:29:39;18.90;99.90
1055;DHT22;516;51.482;7.120;2022-09-13T06:35:27;18.90;99.90
1055;DHT22;516;51.482;7.120;2022-09-13T06:41:22;19.00;99.20
1055;DHT22;516;51.482;7.120;2022-09-13T06:47:11;19.10;97.90
1055;DHT22;516;51.482;7.120;2022-09-13T06:52:59;19.20;98.30
1055;DHT22;516;51.482;7.120;2022-09-13T06:58:48;19.30;96.70
1055;DHT22;516;51.482;7.120;2022-09-13T07:04:36;19.30;95.20
1055;DHT22;516;51.482;7.120;2022-09-13T07:10:24;19.70;92.40
1055;DHT22;516;51.482;7.120;2022-09-13T07:16:11;19.90;91.10
1055;DHT22;516;51.482;7.120;2022-09-13T07:22:00;20.10;86.60
1055;DHT22;516;51.482;7.120;2022-09-13T07:27:48;20.10;83.40
1055;DHT22;516;51.482;7.120;2022-09-13T07:43:33;21.20;64.50
1055;DHT22;516;51.482;7.120;2022-09-13T07:49:21;21.40;65.70
1055;DHT22;516;51.482;7.120;2022-09-13T07:55:09;21.40;62.80
1055;DHT22;516;51.482;7.120;2022-09-13T08:07:24;21.50;56.00
1055;DHT22;516;51.482;7.120;2022-09-13T08:13:14;21.70;60.40
1055;DHT22;516;51.482;7.120;2022-09-13T08:19:04;21.60;58.00
1055;DHT22;516;51.482;7.120;2022-09-13T08:24:51;21.80;56.30
1055;DHT22;516;51.482;7.120;2022-09-13T08:30:39;22.10;53.20
1055;DHT22;516;51.482;7.120;2022-09-13T08:33:10;22.20;52.50
1055;DHT22;516;51.482;7.120;2022-09-13T08:35:37;22.40;50.40
1055;DHT22;516;51.482;7.120;2022-09-13T08:48:01;23.20;41.80
1055;DHT22;516;51.482;7.120;2022-09-13T08:53:50;23.70;38.50
1055;DHT22;516;51.482;7.120;2022-09-13T09:06:15;24.30;38.20
1055;DHT22;516;51.482;7.120;2022-09-13T09:18:53;24.40;36.30
1055;DHT22;516;51.482;7.120;2022-09-13T09:24:45;25.10;29.30
1055;DHT22;516;51.482;7.120;2022-09-13T09:40:31;24.70;28.00
1055;DHT22;516;51.482;7.120;2022-09-13T09:46:25;26.10;26.40
1055;DHT22;516;51.482;7.120;2022-09-13T09:52:17;25.40;30.80
1055;DHT22;516;51.482;7.120;2022-09-13T09:58:09;26.00;28.00
1055;DHT22;516;51.482;7.120;2022-09-13T10:10:03;25.70;27.40
1055;DHT22;516;51.482;7.120;2022-09-13T10:15:54;25.60;24.20
1055;DHT22;516;51.482;7.120;2022-09-13T10:21:42;26.60;24.10
1055;DHT22;516;51.482;7.120;2022-09-13T10:27:34;26.10;26.00
1055;DHT22;516;51.482;7.120;2022-09-13T10:33:28;26.30;23.90
1055;DHT22;516;51.482;7.120;2022-09-13T10:42:39;26.50;22.20
1055;DHT22;516;51.482;7.120;2022-09-13T10:48:29;27.20;23.40
1055;DHT22;516;51.482;7.120;2022-09-13T10:54:19;26.40;26.10
1055;DHT22;516;51.482;7.120;2022-09-13T11:00:12;26.80;24.20
1055;DHT22;516;51.482;7.120;2022-09-13T11:19:33;26.90;26.20
1055;DHT22;516;51.482;7.120;2022-09-13T11:37:46;28.10;21.40
1055;DHT22;516;51.482;7.120;2022-09-13T11:56:21;27.40;23.20
1055;DHT22;516;51.482;7.120;2022-09-13T12:14:00;26.40;22.60
1055;DHT22;516;51.482;7.120;2022-09-13T12:19:51;25.80;24.10
1055;DHT22;516;51.482;7.120;2022-09-13T12:25:56;26.60;23.80
1055;DHT22;516;51.482;7.120;2022-09-13T12:32:11;27.70;22.20
1055;DHT22;516;51.482;7.120;2022-09-13T12:50:39;28.70;22.00
1055;DHT22;516;51.482;7.120;2022-09-13T13:15:55;26.40;25.10
1055;DHT22;516;51.482;7.120;2022-09-13T13:21:43;26.40;26.40
1055;DHT22;516;51.482;7.120;2022-09-13T13:27:37;26.90;26.60
1055;DHT22;516;51.482;7.120;2022-09-13T13:33:28;27.20;26.10
1055;DHT22;516;51.482;7.120;2022-09-13T13:42:40;27.20;26.00
1055;DHT22;516;51.482;7.120;2022-09-13T13:48:39;26.90;25.90
1055;DHT22;516;51.482;7.120;2022-09-13T13:54:30;27.10;21.90
1055;DHT22;516;51.482;7.120;2022-09-13T14:00:24;27.40;24.20
1055;DHT22;516;51.482;7.120;2022-09-13T14:29:50;27.60;22.70
1055;DHT22;516;51.482;7.120;2022-09-13T14:35:40;26.10;26.70
1055;DHT22;516;51.482;7.120;2022-09-13T14:44:50;25.70;28.50
1055;DHT22;516;51.482;7.120;2022-09-13T14:57:25;25.80;32.00
1055;DHT22;516;51.482;7.120;2022-09-13T15:03:47;25.80;31.90
1055;DHT22;516;51.482;7.120;2022-09-13T15:09:35;26.70;31.00
1055;DHT22;516;51.482;7.120;2022-09-13T15:21:17;26.50;31.50
1055;DHT22;516;51.482;7.120;2022-09-13T15:27:15;26.10;31.00
1055;DHT22;516;51.482;7.120;2022-09-13T15:33:27;25.30;38.30
1055;DHT22;516;51.482;7.120;2022-09-13T15:39:17;25.10;40.80
1055;DHT22;516;51.482;7.120;2022-09-13T15:45:06;24.60;46.50
1055;DHT22;516;51.482;7.120;2022-09-13T15:54:38;24.30;54.20
1055;DHT22;516;51.482;7.120;2022-09-13T16:00:27;24.40;60.20
1055;DHT22;516;51.482;7.120;2022-09-13T16:06:14;24.00;63.40
1055;DHT22;516;51.482;7.120;2022-09-13T16:12:01;23.80;68.20
1055;DHT22;516;51.482;7.120;2022-09-13T16:17:48;23.90;71.60
1055;DHT22;516;51.482;7.120;2022-09-13T16:23:35;23.90;76.20
1055;DHT22;516;51.482;7.120;2022-09-13T16:29:23;23.80;78.30
1055;DHT22;516;51.482;7.120;2022-09-13T16:35:11;23.70;82.00
1055;DHT22;516;51.482;7.120;2022-09-13T16:40:59;23.50;89.60
1055;DHT22;516;51.482;7.120;2022-09-13T16:47:01;23.40;91.80
1055;DHT22;516;51.482;7.120;2022-09-13T16:59:56;23.20;95.50
1055;DHT22;516;51.482;7.120;2022-09-13T17:12:16;23.00;99.50
1055;DHT22;516;51.482;7.120;2022-09-13T17:18:03;22.90;99.20
1055;DHT22;516;51.482;7.120;2022-09-13T17:27:12;22.80;99.90
1055;DHT22;516;51.482;7.120;2022-09-13T17:33:00;22.70;99.90
1055;DHT22;516;51.482;7.120;2022-09-13T17:38:54;22.60;99.90
1055;DHT22;516;51.482;7.120;2022-09-13T17:48:31;22.40;99.90
1055;DHT22;516;51.482;7.120;2022-09-13T17:54:20;22.20;99.90
1055;DHT22;516;51.482;7.120;2022-09-13T18:00:09;22.20;99.90
1055;DHT22;516;51.482;7.120;2022-09-13T18:06:00;22.00;99.90
1055;DHT22;516;51.482;7.120;2022-09-13T18:11:49;21.90;99.90
1055;DHT22;516;51.482;7.120;2022-09-13T18:17:37;21.90;99.90
1055;DHT22;516;51.482;7.120;2022-09-13T18:23:25;21.80;99.90
1055;DHT22;516;51.482;7.120;2022-09-13T18:29:14;21.80;99.90
1055;DHT22;516;51.482;7.120;2022-09-13T18:35:04;21.60;99.90
1055;DHT22;516;51.482;7.120;2022-09-13T18:40:59;21.50;99.90
1055;DHT22;516;51.482;7.120;2022-09-13T18:44:00;21.50;99.90
1055;DHT22;516;51.482;7.120;2022-09-13T18:46:29;21.60;99.90
1055;DHT22;516;51.482;7.120;2022-09-13T18:52:18;21.40;99.90
1055;DHT22;516;51.482;7.120;2022-09-13T18:58:05;21.40;99.90
1055;DHT22;516;51.482;7.120;2022-09-13T19:03:55;21.30;99.90
1055;DHT22;516;51.482;7.120;2022-09-13T19:09:43;21.20;99.90
1055;DHT22;516;51.482;7.120;2022-09-13T19:15:32;21.30;99.90
1055;DHT22;516;51.482;7.120;2022-09-13T19:21:22;21.20;99.90
1055;DHT22;516;51.482;7.120;2022-09-13T19:27:10;21.20;99.90
1055;DHT22;516;51.482;7.120;2022-09-13T19:32:58;21.10;99.90
1055;DHT22;516;51.482;7.120;2022-09-13T19:38:46;21.00;99.90
1055;DHT22;516;51.482;7.120;2022-09-13T19:48:33;20.80;99.90
1055;DHT22;516;51.482;7.120;2022-09-13T19:54:24;20.80;99.90
1055;DHT22;516;51.482;7.120;2022-09-13T20:00:12;20.70;99.90
1055;DHT22;516;51.482;7.120;2022-09-13T20:06:05;20.60;99.90
1055;DHT22;516;51.482;7.120;2022-09-13T20:11:53;20.50;99.90
1055;DHT22;516;51.482;7.120;2022-09-13T20:17:46;20.50;99.90
1055;DHT22;516;51.482;7.120;2022-09-13T20:23:35;20.30;97.30
1055;DHT22;516;51.482;7.120;2022-09-13T20:29:24;20.20;95.60
1055;DHT22;516;51.482;7.120;2022-09-13T20:35:12;20.10;96.90
1055;DHT22;516;51.482;7.120;2022-09-13T20:41:05;20.00;93.30
1055;DHT22;516;51.482;7.120;2022-09-13T20:44:00;19.90;89.70
1055;DHT22;516;51.482;7.120;2022-09-13T20:46:26;20.00;86.60
1055;DHT22;516;51.482;7.120;2022-09-13T20:52:15;19.90;85.60
1055;DHT22;516;51.482;7.120;2022-09-13T20:58:03;19.80;85.20
1055;DHT22;516;51.482;7.120;2022-09-13T21:03:53;19.70;80.70
1055;DHT22;516;51.482;7.120;2022-09-13T21:09:41;19.70;77.80
1055;DHT22;516;51.482;7.120;2022-09-13T21:15:29;19.60;81.90
1055;DHT22;516;51.482;7.120;2022-09-13T21:21:21;19.60;78.20
1055;DHT22;516;51.482;7.120;2022-09-13T21:27:09;19.60;79.80
1055;DHT22;516;51.482;7.120;2022-09-13T21:32:57;19.50;77.80
1055;DHT22;516;51.482;7.120;2022-09-13T21:38:45;19.50;75.50
1055;DHT22;516;51.482;7.120;2022-09-13T21:48:32;19.40;71.10
1055;DHT22;516;51.482;7.120;2022-09-13T21:54:20;19.30;73.30
1055;DHT22;516;51.482;7.120;2022-09-13T22:00:08;19.30;74.10
1055;DHT22;516;51.482;7.120;2022-09-13T22:05:59;19.20;73.70
1055;DHT22;516;51.482;7.120;2022-09-13T22:11:48;19.20;72.60
1055;DHT22;516;51.482;7.120;2022-09-13T22:17:35;19.10;73.20
1055;DHT22;516;51.482;7.120;2022-09-13T22:23:23;19.00;73.10
1055;DHT22;516;51.482;7.120;2022-09-13T22:29:12;18.90;77.80
1055;DHT22;516;51.482;7.120;2022-09-13T22:35:01;18.80;84.60
1055;DHT22;516;51.482;7.120;2022-09-13T22:41:00;18.70;83.50
1055;DHT22;516;51.482;7.120;2022-09-13T22:44:00;18.60;81.90
1055;DHT22;516;51.482;7.120;2022-09-13T22:46:35;18.70;82.30
1055;DHT22;516;51.482;7.120;2022-09-13T22:52:57;18.70;84.60
1055;DHT22;516;51.482;7.120;2022-09-13T22:58:44;18.70;85.20
1055;DHT22;516;51.482;7.120;2022-09-13T23:04:31;18.60;87.10
1055;DHT22;516;51.482;7.120;2022-09-13T23:10:18;18.50;95.00
1055;DHT22;516;51.482;7.120;2022-09-13T23:16:07;18.10;99.90
1055;DHT22;516;51.482;7.120;2022-09-13T23:21:56;17.80;99.90
1055;DHT22;516;51.482;7.120;2022-09-13T23:27:42;17.70;99.90
1055;DHT22;516;51.482;7.120;2022-09-13T23:33:30;17.60;99.90
1055;DHT22;516;51.482;7.120;2022-09-13T23:39:18;17.60;99.90
1055;DHT22;516;51.482;7.120;2022-09-13T23:48:34;17.30;99.90
1055;DHT22;516;51.482;7.120;2022-09-13T23:54:22;17.20;99.90
